KRST/RST METAR and TAF weather

Enter ICAO airport designator
Station Type Date Time Source
KRST METAR 2022/08/16 18:54 UTC NOAA

KRST 161854Z 07008KT 10SM FEW040 24/16 A3018 RMK AO2 SLP216 T02390156


Station Type Date Time Source
KRST Decoded METAR 2022/08/16 18:54 UTC NOAA

ROCHESTER INTERNATIONAL AIRPORT , MN, United States (KRST) 43-54N 092-30W 403M
Aug 16, 2022 - 02:54 PM EDT / 2022.08.16 1854 UTC
Wind: from the ENE (070 degrees) at 9 MPH (8 KT):0
Visibility: 10 mile(s):0
Sky conditions: mostly clear
Temperature: 75.0 F (23.9 C)
Dew Point: 60.1 F (15.6 C)
Relative Humidity: 59%
Pressure (altimeter): 30.18 in. Hg (1022 hPa)
ob: KRST 161854Z 07008KT 10SM FEW040 24/16 A3018 RMK AO2 SLP216 T02390156
cycle: 19

Station Type Date Time Source
KRST TAF 2022/08/16 18:24 UTC NOAA

TAF KRST 161722Z 1618/1718 09007KT P6SM SCT040
FM162300 11005KT P6SM SCT150
FM170900 18004KT 4SM BR SCT150
FM171400 20007KT P6SM SCT035 BKN120

Example: see airport list